San Francisco, California
Current Conditions -  °F | °C
As of 6:56 AM on Wednesday 26 Nov 2014 (Local Time) from KSFO Reporting Station
Scattered Clouds Scattered Clouds  
Wind Chill: 52°   Ceiling: Unl
Heat Index: 52°   Visibility: 8mi
Dew Point: 50°   Wind: 3mph
Humidity: 93%   Direction: 150°SSE
Pressure: 30.3"   Gusts: NA
Location:  37.78°N, 122.42°W
Report Text: KSFO 261456Z 15003KT 8SM FEW012 SCT200 11/10 A3030 RMK AO2 SLP259 T01110100 55002
Loading
Personal Weather Stations






























Interactive Weather Map New forecast layout! Learn more

10-Day Weather Forecast

Advertisements
Track Severe Weather on mobile